Time;durP1;ratioP1;P1;durP2;ratioP2;P2;SDS_P1;SDS_P2;PMS_P1;PMS_P2;Temp;Humidity;BMP_temperature;BMP_pressure;BME280_temperature;BME280_humidity;BME280_pressure;Samples;Min_cycle;Max_cycle;Signal;HPM_P1;HPM_P2
2023/12/24 00:00:02;;;;;;;;;;;;;;;;;;4992467;28;20006;-50
2023/12/24 00:02:30;;;;;;;;;;;;;;;;;;4992529;28;19992;-52
2023/12/24 00:04:56;;;;;;;;;;;;;;;;;;4975461;28;20390;-52
2023/12/24 00:07:22;;;;;;;;;;;;;;;;;;4996137;28;20425;-50
2023/12/24 00:09:48;;;;;;;;;;;;;;;;;;4995390;28;19925;-51
2023/12/24 00:12:14;;;;;;;;;;;;;;;;;;4996403;28;20374;-50
2023/12/24 00:14:40;;;;;;;;;;;;;;;;;;4995955;28;19957;-52
2023/12/24 00:17:06;;;;;;;;;;;;;;;;;;4995872;28;19914;-52
2023/12/24 00:19:32;;;;;;;;;;;;;;;;;;4995950;28;19926;-51
2023/12/24 00:21:58;;;;;;;;;;;;;;;;;;4995809;28;20089;-50
2023/12/24 00:24:25;;;;;;;;;;;;;;;;;;4995574;28;20377;-49
2023/12/24 00:26:51;;;;;;;;;;;;;;;;;;4996102;28;20005;-50
2023/12/24 00:29:18;;;;;;;;;;;;;;;;;;4996012;28;20021;-52
2023/12/24 00:31:44;;;;;;;;;;;;;;;;;;4978238;28;19910;-50
2023/12/24 00:34:10;;;;;;;;;;;;;;;;;;4995406;28;19914;-53
2023/12/24 00:36:37;;;;;;;;;;;;;;;;;;4995583;28;19961;-52
2023/12/24 00:39:04;;;;;;;;;;;;;;;;;;4995740;28;19921;-51
2023/12/24 00:41:33;;;;;;;;;;;;;;;;;;4995998;28;19917;-49
2023/12/24 00:43:59;;;;;;;;;;;;;;;;;;4962089;28;19924;-52
2023/12/24 00:46:26;;;;;;;;;;;;;;;;;;4995145;28;19990;-47
2023/12/24 00:48:52;;;;;;;;;;;;;;;;;;4995474;28;19917;-49
2023/12/24 00:51:18;;;;;;;;;;;;;;;;;;4995361;28;19918;-54
2023/12/24 00:53:45;;;;;;;;;;;;;;;;;;4995486;28;20370;-50
2023/12/24 00:56:11;;;;;;;;;;;;;;;;;;4977874;28;19909;-49
2023/12/24 00:58:37;;;;;;;;;;;;;;;;;;4962290;28;19921;-53
2023/12/24 01:01:03;;;;;;;;;;;;;;;;;;4961619;28;20001;-50
2023/12/24 01:03:30;;;;;;;;;;;;;;;;;;4977663;28;19914;-52
2023/12/24 01:05:56;;;;;;;;;;;;;;;;;;4995103;28;20317;-51
2023/12/24 01:08:22;;;;;;;;;;;;;;;;;;4995024;28;19921;-49
2023/12/24 01:10:48;;;;;;;;;;;;;;;;;;4995021;28;19979;-52
2023/12/24 01:13:18;;;;;;;;;;;;;;;;;;4995248;28;19914;-50
2023/12/24 01:15:45;;;;;;;;;;;;;;;;;;4994427;28;20405;-49
2023/12/24 01:18:11;;;;;;;;;;;;;;;;;;4994898;28;19913;-52
2023/12/24 01:20:37;;;;;;;;;;;;;;;;;;4977511;28;19913;-51
2023/12/24 01:23:03;;;;;;;;;;;;;;;;;;4994958;28;20398;-53
2023/12/24 01:25:29;;;;;;;;;;;;;;;;;;4977475;28;19913;-50
2023/12/24 01:27:55;;;;;;;;;;;;;;;;;;4994824;28;19961;-52
2023/12/24 01:30:21;;;;;;;;;;;;;;;;;;4976984;28;19918;-54
2023/12/24 01:32:48;;;;;;;;;;;;;;;;;;4994387;28;19914;-49
2023/12/24 01:35:14;;;;;;;;;;;;;;;;;;4960728;28;20404;-51
2023/12/24 01:37:40;;;;;;;;;;;;;;;;;;4977217;28;19992;-50
2023/12/24 01:40:06;;;;;;;;;;;;;;;;;;4976853;28;19914;-51
2023/12/24 01:42:32;;;;;;;;;;;;;;;;;;4977226;28;20330;-49
2023/12/24 01:44:58;;;;;;;;;;;;;;;;;;4976852;28;19948;-50
2023/12/24 01:47:24;;;;;;;;;;;;;;;;;;4960728;28;19968;-53
2023/12/24 01:49:50;;;;;;;;;;;;;;;;;;4976924;28;19953;-50
2023/12/24 01:52:17;;;;;;;;;;;;;;;;;;4977048;28;19920;-48
2023/12/24 01:54:43;;;;;;;;;;;;;;;;;;4994081;28;20012;-51
2023/12/24 01:57:09;;;;;;;;;;;;;;;;;;4994227;28;20271;-50
2023/12/24 01:59:35;;;;;;;;;;;;;;;;;;4960287;28;19965;-56
2023/12/24 02:02:01;;;;;;;;;;;;;;;;;;4976495;28;19914;-51
2023/12/24 02:04:27;;;;;;;;;;;;;;;;;;4994033;28;20401;-53
2023/12/24 02:06:53;;;;;;;;;;;;;;;;;;4976872;28;20263;-50
2023/12/24 02:09:19;;;;;;;;;;;;;;;;;;4976777;28;19914;-52
2023/12/24 02:11:45;;;;;;;;;;;;;;;;;;4976732;28;19913;-53
2023/12/24 02:14:11;;;;;;;;;;;;;;;;;;4960594;28;19914;-50
2023/12/24 02:16:37;;;;;;;;;;;;;;;;;;4994273;28;19972;-52
2023/12/24 02:19:04;;;;;;;;;;;;;;;;;;4994084;28;19981;-52
2023/12/24 02:21:30;;;;;;;;;;;;;;;;;;4994208;28;19913;-50
2023/12/24 02:23:56;;;;;;;;;;;;;;;;;;4976409;28;19914;-50
2023/12/24 02:26:22;;;;;;;;;;;;;;;;;;4976306;28;19914;-51
2023/12/24 02:28:48;;;;;;;;;;;;;;;;;;4993327;28;20370;-49
2023/12/24 02:31:14;;;;;;;;;;;;;;;;;;4976462;28;20539;-50
2023/12/24 02:33:43;;;;;;;;;;;;;;;;;;4960359;28;19914;-53
2023/12/24 02:36:09;;;;;;;;;;;;;;;;;;4993559;28;20386;-51
2023/12/24 02:38:35;;;;;;;;;;;;;;;;;;4976448;28;19940;-50
2023/12/24 02:41:01;;;;;;;;;;;;;;;;;;4993531;28;20405;-49
2023/12/24 02:43:27;;;;;;;;;;;;;;;;;;4975901;28;19983;-51
2023/12/24 02:45:54;;;;;;;;;;;;;;;;;;4993372;28;19917;-51
2023/12/24 02:48:20;;;;;;;;;;;;;;;;;;4976102;28;19914;-50
2023/12/24 02:50:46;;;;;;;;;;;;;;;;;;4975900;28;19981;-49
2023/12/24 02:53:12;;;;;;;;;;;;;;;;;;4975937;28;19921;-52
2023/12/24 02:55:38;;;;;;;;;;;;;;;;;;4975631;28;19914;-51
2023/12/24 02:58:04;;;;;;;;;;;;;;;;;;4975803;28;19960;-50
2023/12/24 03:00:30;;;;;;;;;;;;;;;;;;4993226;28;19917;-49
2023/12/24 03:02:56;;;;;;;;;;;;;;;;;;4993172;28;19914;-51
2023/12/24 03:05:22;;;;;;;;;;;;;;;;;;4993172;28;19980;-50
2023/12/24 03:07:48;;;;;;;;;;;;;;;;;;4993264;28;19914;-51
2023/12/24 03:10:14;;;;;;;;;;;;;;;;;;4975571;28;19924;-49
2023/12/24 03:12:40;;;;;;;;;;;;;;;;;;4975267;28;19918;-49
2023/12/24 03:15:07;;;;;;;;;;;;;;;;;;4992722;28;19920;-50
2023/12/24 03:17:33;;;;;;;;;;;;;;;;;;4975619;28;19917;-50
2023/12/24 03:20:00;;;;;;;;;;;;;;;;;;4975500;28;20298;-51
2023/12/24 03:22:26;;;;;;;;;;;;;;;;;;4992750;28;19922;-49
2023/12/24 03:24:52;;;;;;;;;;;;;;;;;;4992403;28;19945;-51
2023/12/24 03:27:18;;;;;;;;;;;;;;;;;;4975400;28;20098;-50
2023/12/24 03:29:44;;;;;;;;;;;;;;;;;;4991984;28;19918;-51
2023/12/24 03:32:10;;;;;;;;;;;;;;;;;;4991579;28;19922;-51
2023/12/24 03:34:36;;;;;;;;;;;;;;;;;;4992346;28;20390;-50
2023/12/24 03:37:02;;;;;;;;;;;;;;;;;;4975221;28;20008;-50
2023/12/24 03:39:29;;;;;;;;;;;;;;;;;;4974143;28;19913;-49
2023/12/24 03:41:55;;;;;;;;;;;;;;;;;;4958879;28;19920;-54
2023/12/24 03:44:21;;;;;;;;;;;;;;;;;;4975156;28;19925;-52
2023/12/24 03:46:47;;;;;;;;;;;;;;;;;;4992256;28;19968;-53
2023/12/24 03:49:13;;;;;;;;;;;;;;;;;;4975248;28;19914;-52
2023/12/24 03:51:39;;;;;;;;;;;;;;;;;;4992536;28;19918;-50
2023/12/24 03:54:06;;;;;;;;;;;;;;;;;;4974725;28;19937;-54
2023/12/24 03:56:32;;;;;;;;;;;;;;;;;;4958465;28;20321;-50
2023/12/24 03:58:58;;;;;;;;;;;;;;;;;;4975263;28;20278;-50
2023/12/24 04:01:25;;;;;;;;;;;;;;;;;;4974815;28;19918;-50
2023/12/24 04:03:51;;;;;;;;;;;;;;;;;;4974449;28;19968;-51
2023/12/24 04:06:17;;;;;;;;;;;;;;;;;;4975151;28;19925;-51
2023/12/24 04:08:44;;;;;;;;;;;;;;;;;;4992686;28;20016;-51
2023/12/24 04:11:10;;;;;;;;;;;;;;;;;;4958903;28;19917;-49
2023/12/24 04:13:36;;;;;;;;;;;;;;;;;;4958563;28;19914;-55
2023/12/24 04:16:02;;;;;;;;;;;;;;;;;;4992149;28;19981;-52
2023/12/24 04:18:28;;;;;;;;;;;;;;;;;;4970528;28;19960;-49
2023/12/24 04:20:54;;;;;;;;;;;;;;;;;;4958278;28;19920;-51
2023/12/24 04:23:20;;;;;;;;;;;;;;;;;;4966271;28;19922;-54
2023/12/24 04:25:46;;;;;;;;;;;;;;;;;;4955406;28;19921;-50
2023/12/24 04:28:12;;;;;;;;;;;;;;;;;;4971442;28;19918;-51
2023/12/24 04:30:38;;;;;;;;;;;;;;;;;;4967343;28;20005;-51
2023/12/24 04:33:04;;;;;;;;;;;;;;;;;;4991694;28;19914;-51
2023/12/24 04:35:30;;;;;;;;;;;;;;;;;;4992153;28;20001;-50
2023/12/24 04:37:56;;;;;;;;;;;;;;;;;;4974897;28;19917;-49
2023/12/24 04:40:23;;;;;;;;;;;;;;;;;;4982914;28;19924;-52
2023/12/24 04:42:49;;;;;;;;;;;;;;;;;;4957616;28;19917;-52
2023/12/24 04:45:15;;;;;;;;;;;;;;;;;;5013883;23;19933;-52
2023/12/24 04:47:41;;;;;;;;;;;;;;;;;;5011609;28;20365;-54
2023/12/24 04:50:07;;;;;;;;;;;;;;;;;;5030222;28;20014;-54
2023/12/24 04:52:35;;;;;;;;;;;;;;;;;;5033612;28;20300;-51
2023/12/24 04:55:02;;;;;;;;;;;;;;;;;;5015686;28;19913;-50
2023/12/24 04:57:28;;;;;;;;;;;;;;;;;;5013501;28;19913;-56
2023/12/24 04:59:54;;;;;;;;;;;;;;;;;;5015154;28;20004;-56
2023/12/24 05:02:20;;;;;;;;;;;;;;;;;;5013815;28;19913;-54
2023/12/24 05:04:46;;;;;;;;;;;;;;;;;;5013478;28;19920;-52
2023/12/24 05:07:12;;;;;;;;;;;;;;;;;;5013688;28;19956;-55
2023/12/24 05:09:39;;;;;;;;;;;;;;;;;;5013665;28;19913;-55
2023/12/24 05:12:05;;;;;;;;;;;;;;;;;;5013828;28;20300;-52
2023/12/24 05:14:31;;;;;;;;;;;;;;;;;;5014737;28;19945;-52
2023/12/24 05:16:57;;;;;;;;;;;;;;;;;;5013574;28;19922;-53
2023/12/24 05:19:24;;;;;;;;;;;;;;;;;;5013474;28;19924;-51
2023/12/24 05:21:50;;;;;;;;;;;;;;;;;;5014698;28;19913;-57
2023/12/24 05:24:16;;;;;;;;;;;;;;;;;;5014623;28;19914;-52
2023/12/24 05:26:42;;;;;;;;;;;;;;;;;;5013242;28;20266;-52
2023/12/24 05:29:08;;;;;;;;;;;;;;;;;;5014627;28;20318;-52
2023/12/24 05:31:34;;;;;;;;;;;;;;;;;;5014521;28;19928;-53
2023/12/24 05:34:00;;;;;;;;;;;;;;;;;;4996774;28;19976;-51
2023/12/24 05:36:26;;;;;;;;;;;;;;;;;;5014274;28;19913;-54
2023/12/24 05:38:52;;;;;;;;;;;;;;;;;;5014463;28;19921;-53
2023/12/24 05:41:18;;;;;;;;;;;;;;;;;;5014376;28;20006;-56
2023/12/24 05:43:44;;;;;;;;;;;;;;;;;;5012880;28;19975;-56
2023/12/24 05:46:11;;;;;;;;;;;;;;;;;;5014141;28;19920;-51
2023/12/24 05:48:37;;;;;;;;;;;;;;;;;;5014252;28;19923;-57
2023/12/24 05:51:03;;;;;;;;;;;;;;;;;;5014249;28;19917;-52
2023/12/24 05:53:29;;;;;;;;;;;;;;;;;;5014091;28;19914;-54
2023/12/24 05:55:55;;;;;;;;;;;;;;;;;;5014196;28;20378;-52
2023/12/24 05:58:21;;;;;;;;;;;;;;;;;;5014169;28;20341;-53
2023/12/24 06:00:48;;;;;;;;;;;;;;;;;;5012790;28;20301;-53
2023/12/24 06:03:14;;;;;;;;;;;;;;;;;;5012340;28;20309;-55
2023/12/24 06:05:40;;;;;;;;;;;;;;;;;;5012629;28;20308;-54
2023/12/24 06:08:06;;;;;;;;;;;;;;;;;;5013890;28;20011;-53
2023/12/24 06:10:32;;;;;;;;;;;;;;;;;;5013742;28;19917;-57
2023/12/24 06:12:58;;;;;;;;;;;;;;;;;;5013802;28;20048;-56
2023/12/24 06:15:24;;;;;;;;;;;;;;;;;;5012256;28;19921;-54
2023/12/24 06:17:50;;;;;;;;;;;;;;;;;;5014149;28;20285;-51
2023/12/24 06:20:16;;;;;;;;;;;;;;;;;;5013776;28;19913;-56
2023/12/24 06:22:42;;;;;;;;;;;;;;;;;;5012354;28;19913;-54
2023/12/24 06:25:08;;;;;;;;;;;;;;;;;;5013382;28;19952;-56
2023/12/24 06:27:35;;;;;;;;;;;;;;;;;;5012376;28;19922;-55
2023/12/24 06:30:02;;;;;;;;;;;;;;;;;;5013353;28;20020;-56
2023/12/24 06:32:28;;;;;;;;;;;;;;;;;;5013447;28;20003;-52
2023/12/24 06:34:54;;;;;;;;;;;;;;;;;;5013200;28;19972;-52
2023/12/24 06:37:20;;;;;;;;;;;;;;;;;;5013391;28;20000;-54
2023/12/24 06:39:46;;;;;;;;;;;;;;;;;;5013341;28;19913;-53
2023/12/24 06:42:12;;;;;;;;;;;;;;;;;;5013354;28;19913;-55
2023/12/24 06:44:38;;;;;;;;;;;;;;;;;;5012827;28;20025;-55
2023/12/24 06:47:04;;;;;;;;;;;;;;;;;;5013220;28;19918;-54
2023/12/24 06:49:30;;;;;;;;;;;;;;;;;;5011710;28;20352;-54
2023/12/24 06:51:56;;;;;;;;;;;;;;;;;;5013102;28;19914;-57
2023/12/24 06:54:22;;;;;;;;;;;;;;;;;;5012931;28;20012;-50
2023/12/24 06:56:48;;;;;;;;;;;;;;;;;;5001214;28;19914;-53
2023/12/24 06:59:14;;;;;;;;;;;;;;;;;;4986723;28;20382;-48
2023/12/24 07:01:40;;;;;;;;;;;;;;;;;;4974304;28;20390;-48
2023/12/24 07:04:06;;;;;;;;;;;;;;;;;;4972464;28;20287;-51
2023/12/24 07:06:32;;;;;;;;;;;;;;;;;;4973715;28;20282;-48
2023/12/24 07:08:58;;;;;;;;;;;;;;;;;;4973925;28;19961;-48
2023/12/24 07:11:25;;;;;;;;;;;;;;;;;;4973969;28;20418;-48
2023/12/24 07:13:51;;;;;;;;;;;;;;;;;;4973221;28;19953;-50
2023/12/24 07:16:17;;;;;;;;;;;;;;;;;;4972392;28;20289;-47
2023/12/24 07:18:43;;;;;;;;;;;;;;;;;;4973696;28;19914;-47
2023/12/24 07:21:09;;;;;;;;;;;;;;;;;;4973656;28;19953;-46
2023/12/24 07:23:37;;;;;;;;;;;;;;;;;;4972306;28;20286;-47
2023/12/24 07:26:03;;;;;;;;;;;;;;;;;;4973525;28;20005;-50
2023/12/24 07:28:29;;;;;;;;;;;;;;;;;;4984355;28;19920;-50
2023/12/24 07:30:55;;;;;;;;;;;;;;;;;;4975587;28;19917;-49
2023/12/24 07:33:22;;;;;;;;;;;;;;;;;;4992952;28;19918;-50
2023/12/24 07:35:48;;;;;;;;;;;;;;;;;;4992804;28;19914;-48
2023/12/24 07:38:14;;;;;;;;;;;;;;;;;;4991642;28;19918;-49
2023/12/24 07:40:40;;;;;;;;;;;;;;;;;;4993230;28;20338;-51
2023/12/24 07:43:06;;;;;;;;;;;;;;;;;;4992833;28;20310;-50
2023/12/24 07:45:32;;;;;;;;;;;;;;;;;;4992450;28;19988;-48
2023/12/24 07:47:58;;;;;;;;;;;;;;;;;;4992850;28;19945;-50
2023/12/24 07:50:24;;;;;;;;;;;;;;;;;;4992729;28;19922;-50
2023/12/24 07:52:50;;;;;;;;;;;;;;;;;;4992799;28;20291;-55
2023/12/24 07:55:16;;;;;;;;;;;;;;;;;;4992646;28;19913;-49
2023/12/24 07:57:42;;;;;;;;;;;;;;;;;;4991411;28;19921;-49
2023/12/24 08:00:08;;;;;;;;;;;;;;;;;;4992656;28;20330;-50
2023/12/24 08:02:40;;;;;;;;;;;;;;;;;;4992719;28;19914;-49
2023/12/24 08:05:06;;;;;;;;;;;;;;;;;;4992212;28;19920;-50
2023/12/24 08:07:32;;;;;;;;;;;;;;;;;;4991434;28;20017;-49
2023/12/24 08:09:58;;;;;;;;;;;;;;;;;;4992479;28;19918;-53
2023/12/24 08:12:24;;;;;;;;;;;;;;;;;;4992490;28;19939;-49
2023/12/24 08:14:50;;;;;;;;;;;;;;;;;;4992430;28;19914;-49
2023/12/24 08:17:16;;;;;;;;;;;;;;;;;;4991439;28;19916;-49
2023/12/24 08:19:42;;;;;;;;;;;;;;;;;;4992526;28;20301;-49
2023/12/24 08:22:09;;;;;;;;;;;;;;;;;;4992500;28;19910;-49
2023/12/24 08:24:35;;;;;;;;;;;;;;;;;;4992398;28;19968;-48
2023/12/24 08:27:01;;;;;;;;;;;;;;;;;;4995427;28;19910;-51
2023/12/24 08:29:27;;;;;;;;;;;;;;;;;;4994822;28;19914;-50
2023/12/24 08:31:53;;;;;;;;;;;;;;;;;;4996154;28;19937;-53
2023/12/24 08:34:19;;;;;;;;;;;;;;;;;;4996090;28;19956;-53
2023/12/24 08:36:45;;;;;;;;;;;;;;;;;;4996095;28;19945;-52
2023/12/24 08:39:11;;;;;;;;;;;;;;;;;;4995984;28;19921;-53
2023/12/24 08:41:38;;;;;;;;;;;;;;;;;;4996004;28;19972;-52
2023/12/24 08:44:04;;;;;;;;;;;;;;;;;;4995442;28;19922;-55
2023/12/24 08:46:30;;;;;;;;;;;;;;;;;;4995822;28;20000;-49
2023/12/24 08:48:56;;;;;;;;;;;;;;;;;;4994627;28;19920;-52
2023/12/24 08:51:22;;;;;;;;;;;;;;;;;;4995759;28;19914;-51
2023/12/24 08:53:49;;;;;;;;;;;;;;;;;;4995744;28;19914;-52
2023/12/24 08:56:15;;;;;;;;;;;;;;;;;;4995473;28;20325;-52
2023/12/24 08:58:41;;;;;;;;;;;;;;;;;;4994207;28;19914;-50
2023/12/24 09:01:07;;;;;;;;;;;;;;;;;;4995725;28;19917;-49
2023/12/24 09:03:33;;;;;;;;;;;;;;;;;;4995613;28;20005;-50
2023/12/24 09:05:59;;;;;;;;;;;;;;;;;;4995430;28;19941;-50
2023/12/24 09:08:25;;;;;;;;;;;;;;;;;;4995501;28;20391;-50
2023/12/24 09:10:51;;;;;;;;;;;;;;;;;;4995413;28;19972;-53
2023/12/24 09:13:17;;;;;;;;;;;;;;;;;;4993943;28;19914;-53
2023/12/24 09:15:43;;;;;;;;;;;;;;;;;;4994063;28;20012;-49
2023/12/24 09:18:09;;;;;;;;;;;;;;;;;;4995319;28;19914;-50
2023/12/24 09:20:35;;;;;;;;;;;;;;;;;;4995158;28;20290;-54
2023/12/24 09:23:01;;;;;;;;;;;;;;;;;;4995139;28;19935;-50
2023/12/24 09:25:27;;;;;;;;;;;;;;;;;;4995157;28;20351;-51
2023/12/24 09:27:53;;;;;;;;;;;;;;;;;;4994916;28;19920;-50
2023/12/24 09:30:21;;;;;;;;;;;;;;;;;;4996486;28;19913;-52
2023/12/24 09:32:47;;;;;;;;;;;;;;;;;;4994739;28;19914;-54
2023/12/24 09:35:13;;;;;;;;;;;;;;;;;;4994903;28;20445;-53
2023/12/24 09:37:39;;;;;;;;;;;;;;;;;;4994866;28;19949;-53
2023/12/24 09:40:06;;;;;;;;;;;;;;;;;;4994931;28;19941;-50
2023/12/24 09:42:33;;;;;;;;;;;;;;;;;;4993522;28;19953;-51
2023/12/24 09:44:59;;;;;;;;;;;;;;;;;;4992830;28;19996;-51
2023/12/24 09:47:25;;;;;;;;;;;;;;;;;;4994118;28;19954;-52
2023/12/24 09:49:51;;;;;;;;;;;;;;;;;;4977191;28;20008;-53
2023/12/24 09:52:18;;;;;;;;;;;;;;;;;;4994681;28;19914;-51
2023/12/24 09:54:44;;;;;;;;;;;;;;;;;;4994359;28;19910;-52
2023/12/24 09:57:10;;;;;;;;;;;;;;;;;;4993112;28;20303;-52
2023/12/24 09:59:36;;;;;;;;;;;;;;;;;;4994535;28;19916;-50
2023/12/24 10:02:02;;;;;;;;;;;;;;;;;;4994534;28;19914;-51
2023/12/24 10:04:28;;;;;;;;;;;;;;;;;;4994236;28;19910;-50
2023/12/24 10:06:54;;;;;;;;;;;;;;;;;;4993017;28;20032;-52
2023/12/24 10:09:21;;;;;;;;;;;;;;;;;;4994420;28;19964;-54
2023/12/24 10:11:47;;;;;;;;;;;;;;;;;;4994212;28;19918;-53
2023/12/24 10:14:15;;;;;;;;;;;;;;;;;;4992957;28;19914;-55
2023/12/24 10:16:41;;;;;;;;;;;;;;;;;;4994117;28;19968;-51
2023/12/24 10:19:07;;;;;;;;;;;;;;;;;;4976475;28;20330;-50
2023/12/24 10:21:33;;;;;;;;;;;;;;;;;;4991631;28;19964;-51
2023/12/24 10:23:59;;;;;;;;;;;;;;;;;;4993993;28;19910;-54
2023/12/24 10:26:26;;;;;;;;;;;;;;;;;;4994089;28;19917;-51
2023/12/24 10:28:53;;;;;;;;;;;;;;;;;;4993843;28;19910;-56
2023/12/24 10:31:19;;;;;;;;;;;;;;;;;;4993882;28;19981;-50
2023/12/24 10:33:45;;;;;;;;;;;;;;;;;;4993829;28;19910;-51
2023/12/24 10:36:11;;;;;;;;;;;;;;;;;;4992400;28;20064;-51
2023/12/24 10:38:37;;;;;;;;;;;;;;;;;;4992635;28;19909;-54
2023/12/24 10:41:03;;;;;;;;;;;;;;;;;;4993790;28;20004;-51
2023/12/24 10:43:29;;;;;;;;;;;;;;;;;;4993466;28;19910;-50
2023/12/24 10:45:58;;;;;;;;;;;;;;;;;;4994055;28;20449;-55
2023/12/24 10:48:24;;;;;;;;;;;;;;;;;;4993108;28;19910;-50
2023/12/24 10:50:50;;;;;;;;;;;;;;;;;;4993769;28;19928;-50
2023/12/24 10:53:16;;;;;;;;;;;;;;;;;;4993510;28;19910;-50
2023/12/24 10:55:42;;;;;;;;;;;;;;;;;;4993132;28;19980;-51
2023/12/24 10:58:08;;;;;;;;;;;;;;;;;;4993210;28;19982;-50
2023/12/24 11:00:34;;;;;;;;;;;;;;;;;;4992207;28;19921;-52
2023/12/24 11:03:00;;;;;;;;;;;;;;;;;;4993373;28;19910;-50
2023/12/24 11:05:26;;;;;;;;;;;;;;;;;;4993031;28;19914;-50
2023/12/24 11:07:52;;;;;;;;;;;;;;;;;;4993277;28;19964;-53
2023/12/24 11:10:18;;;;;;;;;;;;;;;;;;4993094;28;19918;-51
2023/12/24 11:12:44;;;;;;;;;;;;;;;;;;4993153;28;19913;-50
2023/12/24 11:15:10;;;;;;;;;;;;;;;;;;4992939;28;19914;-51
2023/12/24 11:17:37;;;;;;;;;;;;;;;;;;4993086;28;20052;-52
2023/12/24 11:20:03;;;;;;;;;;;;;;;;;;4993291;28;19972;-50
2023/12/24 11:22:29;;;;;;;;;;;;;;;;;;4992947;28;19910;-50
2023/12/24 11:24:55;;;;;;;;;;;;;;;;;;4991371;28;19999;-50
2023/12/24 11:27:21;;;;;;;;;;;;;;;;;;4992752;28;19910;-50
2023/12/24 11:29:47;;;;;;;;;;;;;;;;;;4991338;28;20259;-51
2023/12/24 11:32:13;;;;;;;;;;;;;;;;;;4992772;28;19909;-52
2023/12/24 11:34:40;;;;;;;;;;;;;;;;;;4992612;28;19917;-52
2023/12/24 11:37:06;;;;;;;;;;;;;;;;;;4992820;28;19914;-50
2023/12/24 11:39:32;;;;;;;;;;;;;;;;;;4992671;28;19969;-50
2023/12/24 11:41:58;;;;;;;;;;;;;;;;;;4994916;28;19917;-50
2023/12/24 11:44:24;;;;;;;;;;;;;;;;;;5011480;28;20345;-49
2023/12/24 11:46:50;;;;;;;;;;;;;;;;;;5010321;28;19964;-51
2023/12/24 11:49:20;;;;;;;;;;;;;;;;;;5011018;28;19917;-55
2023/12/24 11:51:46;;;;;;;;;;;;;;;;;;5009960;28;19972;-57
2023/12/24 11:54:12;;;;;;;;;;;;;;;;;;5011692;28;19914;-54
2023/12/24 11:56:38;;;;;;;;;;;;;;;;;;5002406;28;20013;-60
2023/12/24 11:59:07;;;;;;;;;;;;;;;;;;4988918;28;19925;-58
2023/12/24 12:01:35;;;;;;;;;;;;;;;;;;4993678;28;19918;-50
2023/12/24 12:04:01;;;;;;;;;;;;;;;;;;4993910;28;19921;-51
2023/12/24 12:06:27;;;;;;;;;;;;;;;;;;4995086;28;19913;-51
2023/12/24 12:08:53;;;;;;;;;;;;;;;;;;4995224;28;19914;-55
2023/12/24 12:11:19;;;;;;;;;;;;;;;;;;4992154;28;19925;-54
2023/12/24 12:13:46;;;;;;;;;;;;;;;;;;4992896;28;19972;-51
2023/12/24 12:16:12;;;;;;;;;;;;;;;;;;5010359;28;19914;-54
2023/12/24 12:18:38;;;;;;;;;;;;;;;;;;5014187;28;19957;-55
2023/12/24 12:21:04;;;;;;;;;;;;;;;;;;5013746;28;20386;-53
2023/12/24 12:23:30;;;;;;;;;;;;;;;;;;5013881;28;19964;-51
2023/12/24 12:25:56;;;;;;;;;;;;;;;;;;5013381;28;19920;-52
2023/12/24 12:28:22;;;;;;;;;;;;;;;;;;5008122;28;19992;-54
2023/12/24 12:30:49;;;;;;;;;;;;;;;;;;5005842;28;19975;-56
2023/12/24 12:33:15;;;;;;;;;;;;;;;;;;5013937;28;19921;-55
2023/12/24 12:35:41;;;;;;;;;;;;;;;;;;5013297;28;19921;-53
2023/12/24 12:38:07;;;;;;;;;;;;;;;;;;5012438;28;19944;-50
2023/12/24 12:40:33;;;;;;;;;;;;;;;;;;5012141;28;19963;-53
2023/12/24 12:42:59;;;;;;;;;;;;;;;;;;5013356;28;19917;-55
2023/12/24 12:45:25;;;;;;;;;;;;;;;;;;5012909;28;19918;-54
2023/12/24 12:47:51;;;;;;;;;;;;;;;;;;5013324;28;19921;-49
2023/12/24 12:50:17;;;;;;;;;;;;;;;;;;5013272;28;19960;-50
2023/12/24 12:52:43;;;;;;;;;;;;;;;;;;5012134;28;19920;-56
2023/12/24 12:55:15;;;;;;;;;;;;;;;;;;5013079;28;19913;-53
2023/12/24 12:57:41;;;;;;;;;;;;;;;;;;5008849;28;19918;-53
2023/12/24 13:00:10;;;;;;;;;;;;;;;;;;5012304;28;19909;-51
2023/12/24 13:02:36;;;;;;;;;;;;;;;;;;4974626;28;19921;-49
2023/12/24 13:05:02;;;;;;;;;;;;;;;;;;4986908;28;19913;-52
2023/12/24 13:07:29;;;;;;;;;;;;;;;;;;4995941;28;19918;-48
2023/12/24 13:09:55;;;;;;;;;;;;;;;;;;5012384;28;19918;-48
2023/12/24 13:12:21;;;;;;;;;;;;;;;;;;5013024;28;19924;-54
2023/12/24 13:14:47;;;;;;;;;;;;;;;;;;5011262;28;19913;-48
2023/12/24 13:17:13;;;;;;;;;;;;;;;;;;5012992;28;19921;-49
2023/12/24 13:19:39;;;;;;;;;;;;;;;;;;5013296;28;19920;-50
2023/12/24 13:22:05;;;;;;;;;;;;;;;;;;5013286;28;19924;-50
2023/12/24 13:24:31;;;;;;;;;;;;;;;;;;5013027;28;20000;-52
2023/12/24 13:26:57;;;;;;;;;;;;;;;;;;5012865;28;19921;-48
2023/12/24 13:29:23;;;;;;;;;;;;;;;;;;5013116;28;20343;-52
2023/12/24 13:31:49;;;;;;;;;;;;;;;;;;5012810;28;20287;-49
2023/12/24 13:34:18;;;;;;;;;;;;;;;;;;5012937;28;20386;-54
2023/12/24 13:36:44;;;;;;;;;;;;;;;;;;5012370;28;20393;-53
2023/12/24 13:39:11;;;;;;;;;;;;;;;;;;5011605;28;19913;-50
2023/12/24 13:41:37;;;;;;;;;;;;;;;;;;5012796;28;19918;-51
2023/12/24 13:44:03;;;;;;;;;;;;;;;;;;5008604;28;19925;-51
2023/12/24 13:46:31;;;;;;;;;;;;;;;;;;5008468;28;20276;-52
2023/12/24 13:48:57;;;;;;;;;;;;;;;;;;5012485;28;19921;-52
2023/12/24 13:51:23;;;;;;;;;;;;;;;;;;5012679;28;19917;-52
2023/12/24 13:53:49;;;;;;;;;;;;;;;;;;5013342;28;20259;-50
2023/12/24 13:56:15;;;;;;;;;;;;;;;;;;5012833;28;19921;-53
2023/12/24 13:58:41;;;;;;;;;;;;;;;;;;4996171;28;19909;-53
2023/12/24 14:01:07;;;;;;;;;;;;;;;;;;5012083;28;19913;-54
2023/12/24 14:03:33;;;;;;;;;;;;;;;;;;5014040;28;20420;-48
2023/12/24 14:05:59;;;;;;;;;;;;;;;;;;5012504;28;19925;-52
2023/12/24 14:08:25;;;;;;;;;;;;;;;;;;5013891;28;19920;-53
2023/12/24 14:10:51;;;;;;;;;;;;;;;;;;5013835;28;19925;-48
2023/12/24 14:13:17;;;;;;;;;;;;;;;;;;5012500;28;19909;-47
2023/12/24 14:15:44;;;;;;;;;;;;;;;;;;5012321;28;20306;-50
2023/12/24 14:18:10;;;;;;;;;;;;;;;;;;5012541;28;19909;-51
2023/12/24 14:20:36;;;;;;;;;;;;;;;;;;5013613;28;19920;-48
2023/12/24 14:23:02;;;;;;;;;;;;;;;;;;5012840;28;19916;-52
2023/12/24 14:25:28;;;;;;;;;;;;;;;;;;5013354;28;20008;-48
2023/12/24 14:27:54;;;;;;;;;;;;;;;;;;5013766;28;20378;-51
2023/12/24 14:30:21;;;;;;;;;;;;;;;;;;5013074;28;19917;-48
2023/12/24 14:32:48;;;;;;;;;;;;;;;;;;5008255;28;20008;-52
2023/12/24 14:35:14;;;;;;;;;;;;;;;;;;5012688;28;20008;-51
2023/12/24 14:37:40;;;;;;;;;;;;;;;;;;5013001;28;20418;-49
2023/12/24 14:40:06;;;;;;;;;;;;;;;;;;5013182;28;19920;-49
2023/12/24 14:42:32;;;;;;;;;;;;;;;;;;5013598;28;19949;-49
2023/12/24 14:45:00;;;;;;;;;;;;;;;;;;5012951;28;20346;-49
2023/12/24 14:47:29;;;;;;;;;;;;;;;;;;5013299;28;20327;-48
2023/12/24 14:49:57;;;;;;;;;;;;;;;;;;5013028;28;19925;-50
2023/12/24 14:52:23;;;;;;;;;;;;;;;;;;5012098;28;19913;-52
2023/12/24 14:54:50;;;;;;;;;;;;;;;;;;5012935;28;19914;-48
2023/12/24 14:57:16;;;;;;;;;;;;;;;;;;5012988;28;19917;-51
2023/12/24 14:59:43;;;;;;;;;;;;;;;;;;4999935;28;20008;-49
2023/12/24 15:02:09;;;;;;;;;;;;;;;;;;5011276;28;20378;-49
2023/12/24 15:04:35;;;;;;;;;;;;;;;;;;4997923;28;19933;-51
2023/12/24 15:07:01;;;;;;;;;;;;;;;;;;4992097;28;20429;-47
2023/12/24 15:09:27;;;;;;;;;;;;;;;;;;4992971;28;19921;-56
2023/12/24 15:11:53;;;;;;;;;;;;;;;;;;4992724;28;19918;-51
2023/12/24 15:14:19;;;;;;;;;;;;;;;;;;4987963;28;20389;-50
2023/12/24 15:16:45;;;;;;;;;;;;;;;;;;4989234;28;20354;-52
2023/12/24 15:19:11;;;;;;;;;;;;;;;;;;4987857;28;19926;-53
2023/12/24 15:21:37;;;;;;;;;;;;;;;;;;4991784;28;20394;-49
2023/12/24 15:24:04;;;;;;;;;;;;;;;;;;4990669;28;19914;-52
2023/12/24 15:26:30;;;;;;;;;;;;;;;;;;4990471;28;19914;-51
2023/12/24 15:28:56;;;;;;;;;;;;;;;;;;4977921;28;19970;-47
2023/12/24 15:31:22;;;;;;;;;;;;;;;;;;4992633;28;19917;-48
2023/12/24 15:33:48;;;;;;;;;;;;;;;;;;5011682;28;20438;-49
2023/12/24 15:36:14;;;;;;;;;;;;;;;;;;5011777;28;19914;-50
2023/12/24 15:38:41;;;;;;;;;;;;;;;;;;5011921;28;20345;-50
2023/12/24 15:41:07;;;;;;;;;;;;;;;;;;5010523;28;19914;-54
2023/12/24 15:43:37;;;;;;;;;;;;;;;;;;5007349;28;20146;-50
2023/12/24 15:46:03;;;;;;;;;;;;;;;;;;4999444;28;19922;-48
2023/12/24 15:48:29;;;;;;;;;;;;;;;;;;4990996;28;20386;-48
2023/12/24 15:50:55;;;;;;;;;;;;;;;;;;4991184;28;20454;-52
2023/12/24 15:53:21;;;;;;;;;;;;;;;;;;4985431;28;19922;-51
2023/12/24 15:55:47;;;;;;;;;;;;;;;;;;4983257;28;19914;-50
2023/12/24 15:58:13;;;;;;;;;;;;;;;;;;4990164;28;19922;-50
2023/12/24 16:00:39;;;;;;;;;;;;;;;;;;4991372;28;19929;-52
2023/12/24 16:03:05;;;;;;;;;;;;;;;;;;4979603;28;19918;-49
2023/12/24 16:05:32;;;;;;;;;;;;;;;;;;4991795;28;20011;-50
2023/12/24 16:07:58;;;;;;;;;;;;;;;;;;4991130;28;19914;-49
2023/12/24 16:10:25;;;;;;;;;;;;;;;;;;4991292;28;19976;-53
2023/12/24 16:12:51;;;;;;;;;;;;;;;;;;4991247;28;20012;-48
2023/12/24 16:15:18;;;;;;;;;;;;;;;;;;4991639;28;20271;-51
2023/12/24 16:17:44;;;;;;;;;;;;;;;;;;5008940;28;19914;-50
2023/12/24 16:20:10;;;;;;;;;;;;;;;;;;5003910;28;19913;-52
2023/12/24 16:22:36;;;;;;;;;;;;;;;;;;4991114;28;19988;-48
2023/12/24 16:25:02;;;;;;;;;;;;;;;;;;4989839;28;19961;-52
2023/12/24 16:27:31;;;;;;;;;;;;;;;;;;4990545;28;19914;-48
2023/12/24 16:29:57;;;;;;;;;;;;;;;;;;4992970;28;19914;-48
2023/12/24 16:32:23;;;;;;;;;;;;;;;;;;5011584;28;19972;-48
2023/12/24 16:34:49;;;;;;;;;;;;;;;;;;4998859;28;20451;-50
2023/12/24 16:37:15;;;;;;;;;;;;;;;;;;4973615;28;20302;-50